createdAt,value
2019-04-16T00:00:02.315Z,-1.26
2019-04-16T00:01:02.278Z,-1.28
2019-04-16T00:02:02.333Z,-1.29
2019-04-16T00:03:02.293Z,-1.32
2019-04-16T00:04:02.306Z,-1.38
2019-04-16T00:05:02.321Z,-1.39
2019-04-16T00:06:02.304Z,-1.37
2019-04-16T00:07:02.313Z,-1.26
2019-04-16T00:08:02.318Z,-1.21
2019-04-16T00:09:02.317Z,-1.21
2019-04-16T00:10:02.305Z,-1.26
2019-04-16T00:11:02.351Z,-1.33
2019-04-16T00:12:02.304Z,-1.35
2019-04-16T00:13:02.323Z,-1.41
2019-04-16T00:14:03.486Z,-1.47
2019-04-16T00:15:02.313Z,-1.52
2019-04-16T00:16:02.322Z,-1.54
2019-04-16T00:17:02.343Z,-1.58
2019-04-16T00:18:02.337Z,-1.62
2019-04-16T00:19:05.653Z,-1.63
2019-04-16T00:20:05.663Z,-1.62
2019-04-16T00:21:02.525Z,-1.65
2019-04-16T00:22:02.340Z,-1.62
2019-04-16T00:23:02.349Z,-1.61
2019-04-16T00:24:02.314Z,-1.62
2019-04-16T00:25:02.344Z,-1.62
2019-04-16T00:26:02.303Z,-1.58
2019-04-16T00:27:02.313Z,-1.51
2019-04-16T00:28:02.317Z,-1.54
2019-04-16T00:29:03.180Z,-1.63
2019-04-16T00:30:04.862Z,-1.66
2019-04-16T00:31:04.694Z,-1.64
2019-04-16T00:32:02.350Z,-1.63
2019-04-16T00:33:02.315Z,-1.71
2019-04-16T00:34:02.328Z,-1.74
2019-04-16T00:35:02.357Z,-1.73
2019-04-16T00:36:02.345Z,-1.75
2019-04-16T00:37:02.314Z,-1.79
2019-04-16T00:38:02.369Z,-1.82
2019-04-16T00:39:02.328Z,-1.87
2019-04-16T00:40:02.332Z,-1.94
2019-04-16T00:41:02.387Z,-1.97
2019-04-16T00:42:02.339Z,-2.01
2019-04-16T00:43:02.337Z,-2.00
2019-04-16T00:44:02.332Z,-1.96
2019-04-16T00:45:02.321Z,-2.00
2019-04-16T00:46:02.322Z,-2.02
2019-04-16T00:47:02.395Z,-2.01
2019-04-16T00:48:02.334Z,-2.02
2019-04-16T00:49:02.343Z,-2.01
2019-04-16T00:50:02.340Z,-1.93
2019-04-16T00:51:02.337Z,-1.84
2019-04-16T00:52:05.898Z,-1.92
2019-04-16T00:53:02.339Z,-1.98
2019-04-16T00:54:02.332Z,-2.00
2019-04-16T00:55:02.343Z,-2.02
2019-04-16T00:56:02.338Z,-2.06
2019-04-16T00:57:02.433Z,-2.11
2019-04-16T00:58:02.349Z,-2.17
2019-04-16T00:59:02.368Z,-2.16
2019-04-16T01:00:02.337Z,-2.19
2019-04-16T01:01:02.389Z,-2.21
2019-04-16T01:02:02.496Z,-2.25
2019-04-16T01:03:02.318Z,-2.23
2019-04-16T01:04:03.064Z,-2.18
2019-04-16T01:05:02.358Z,-2.11
2019-04-16T01:06:07.034Z,-2.05
2019-04-16T01:07:02.498Z,-2.06
2019-04-16T01:08:02.321Z,-2.11
2019-04-16T01:09:02.333Z,-2.12
2019-04-16T01:10:02.343Z,-2.13
2019-04-16T01:11:02.365Z,-2.20
2019-04-16T01:12:02.337Z,-2.19
2019-04-16T01:13:02.342Z,-2.17
2019-04-16T01:14:02.351Z,-2.20
2019-04-16T01:15:02.329Z,-2.15
2019-04-16T01:16:03.746Z,-2.19
2019-04-16T01:17:05.095Z,-2.21
2019-04-16T01:18:04.618Z,-2.16
2019-04-16T01:19:02.353Z,-2.02
2019-04-16T01:20:02.349Z,-1.96
2019-04-16T01:21:02.423Z,-2.04
2019-04-16T01:22:02.372Z,-2.07
2019-04-16T01:23:02.371Z,-2.04
2019-04-16T01:24:02.351Z,-2.04
2019-04-16T01:25:02.369Z,-2.07
2019-04-16T01:26:02.362Z,-2.13
2019-04-16T01:27:02.352Z,-2.18
2019-04-16T01:28:02.355Z,-2.16
2019-04-16T01:29:03.720Z,-2.13
2019-04-16T01:30:04.888Z,-2.08
2019-04-16T01:31:06.918Z,-2.11
2019-04-16T01:32:02.432Z,-2.12
2019-04-16T01:33:02.352Z,-2.10
2019-04-16T01:34:02.372Z,-2.03
2019-04-16T01:35:02.393Z,-2.02
2019-04-16T01:36:02.367Z,-2.02
2019-04-16T01:37:02.369Z,-2.02
2019-04-16T01:38:02.369Z,-2.04
2019-04-16T01:39:16.264Z,-2.04
2019-04-16T01:40:02.361Z,-2.07
2019-04-16T01:41:02.402Z,-2.05
2019-04-16T01:42:02.366Z,-2.03
2019-04-16T01:43:02.357Z,-1.90
2019-04-16T01:44:02.405Z,-1.89
2019-04-16T01:45:02.373Z,-1.96
2019-04-16T01:46:02.811Z,-2.03
2019-04-16T01:47:04.277Z,-2.07
2019-04-16T01:48:06.679Z,-2.15
2019-04-16T01:49:02.365Z,-2.18
2019-04-16T01:50:02.413Z,-2.16
2019-04-16T01:51:02.353Z,-2.16
2019-04-16T01:52:02.377Z,-2.17
2019-04-16T01:53:02.458Z,-2.18
2019-04-16T01:54:02.596Z,-2.16
2019-04-16T01:55:02.608Z,-2.18
2019-04-16T01:56:02.601Z,-2.20
2019-04-16T01:57:02.381Z,-2.19
2019-04-16T01:58:03.641Z,-2.17
2019-04-16T01:59:05.462Z,-2.16
2019-04-16T02:00:06.747Z,-2.14
2019-04-16T02:01:02.395Z,-2.10
2019-04-16T02:02:02.379Z,-2.09
2019-04-16T02:03:02.382Z,-2.08
2019-04-16T02:04:02.389Z,-2.12
2019-04-16T02:05:02.410Z,-2.13
2019-04-16T02:06:02.398Z,-2.14
2019-04-16T02:07:02.377Z,-2.16
2019-04-16T02:08:02.393Z,-2.15
2019-04-16T02:09:03.251Z,-2.17
2019-04-16T02:10:06.448Z,-2.21
2019-04-16T02:11:02.417Z,-2.23
2019-04-16T02:12:02.380Z,-2.25
2019-04-16T02:13:02.641Z,-2.31
2019-04-16T02:14:02.622Z,-2.40
2019-04-16T02:15:02.625Z,-2.43
2019-04-16T02:16:02.404Z,-2.44
2019-04-16T02:17:02.393Z,-2.44
2019-04-16T02:18:02.404Z,-2.45
2019-04-16T02:19:02.688Z,-2.36
2019-04-16T02:20:06.202Z,-2.28
2019-04-16T02:21:02.382Z,-2.25
2019-04-16T02:22:02.386Z,-2.25
2019-04-16T02:23:02.405Z,-2.21
2019-04-16T02:24:02.399Z,-2.23
2019-04-16T02:25:02.378Z,-2.22
2019-04-16T02:26:02.439Z,-2.24
2019-04-16T02:27:02.388Z,-2.22
2019-04-16T02:28:02.410Z,-2.21
2019-04-16T02:29:02.402Z,-2.23
2019-04-16T02:30:04.653Z,-2.24
2019-04-16T02:31:02.584Z,-2.25
2019-04-16T02:32:02.403Z,-2.28
2019-04-16T02:33:02.516Z,-2.24
2019-04-16T02:34:02.630Z,-2.24
2019-04-16T02:35:02.715Z,-2.18
2019-04-16T02:36:02.659Z,-2.17
2019-04-16T02:37:03.211Z,-2.21
2019-04-16T02:38:02.708Z,-2.21
2019-04-16T02:39:02.388Z,-2.22
2019-04-16T02:40:02.542Z,-2.25
2019-04-16T02:41:02.427Z,-2.30
2019-04-16T02:42:02.779Z,-2.29
2019-04-16T02:43:06.503Z,-2.24
2019-04-16T02:44:02.789Z,-2.21
2019-04-16T02:45:02.413Z,-2.19
2019-04-16T02:46:02.413Z,-2.12
2019-04-16T02:47:06.196Z,-2.14
2019-04-16T02:48:02.422Z,-2.10
2019-04-16T02:49:02.415Z,-2.15
2019-04-16T02:50:02.429Z,-2.14
2019-04-16T02:51:07.335Z,-2.15
2019-04-16T02:52:02.425Z,-2.11
2019-04-16T02:53:02.459Z,-2.14
2019-04-16T02:54:02.438Z,-2.22
2019-04-16T02:55:08.140Z,-2.28
2019-04-16T02:56:02.448Z,-2.32
2019-04-16T02:57:02.575Z,-2.32
2019-04-16T02:58:02.557Z,-2.36
2019-04-16T02:59:09.791Z,-2.38
2019-04-16T03:00:02.431Z,-2.36
2019-04-16T03:01:02.447Z,-2.36
2019-04-16T03:02:02.459Z,-2.34
2019-04-16T03:03:02.414Z,-2.31
2019-04-16T03:04:02.417Z,-2.29
2019-04-16T03:05:02.439Z,-2.28
2019-04-16T03:06:02.427Z,-2.25
2019-04-16T03:07:03.334Z,-2.23
2019-04-16T03:08:04.608Z,-2.19
2019-04-16T03:09:02.417Z,-2.21
2019-04-16T03:10:02.821Z,-2.19
2019-04-16T03:11:02.448Z,-2.14
2019-04-16T03:12:02.442Z,-2.18
2019-04-16T03:13:02.417Z,-2.20
2019-04-16T03:14:02.422Z,-2.17
2019-04-16T03:15:02.820Z,-2.14
2019-04-16T03:16:05.689Z,-2.09
2019-04-16T03:17:02.436Z,-2.12
2019-04-16T03:18:02.566Z,-2.16
2019-04-16T03:19:02.453Z,-2.24
2019-04-16T03:20:02.423Z,-2.28
2019-04-16T03:21:02.497Z,-2.30
2019-04-16T03:22:03.303Z,-2.34
2019-04-16T03:23:05.645Z,-2.34
2019-04-16T03:24:02.708Z,-2.36
2019-04-16T03:25:02.585Z,-2.40
2019-04-16T03:26:02.703Z,-2.36
2019-04-16T03:27:04.602Z,-2.34
2019-04-16T03:28:02.625Z,-2.35
2019-04-16T03:29:02.435Z,-2.41
2019-04-16T03:30:03.459Z,-2.44
2019-04-16T03:31:07.480Z,-2.36
2019-04-16T03:32:02.424Z,-2.34
2019-04-16T03:33:10.282Z,-2.35
2019-04-16T03:34:02.487Z,-2.37
2019-04-16T03:35:02.448Z,-2.40
2019-04-16T03:36:02.477Z,-2.51
2019-04-16T03:37:03.037Z,-2.61
2019-04-16T03:38:05.067Z,-2.66
2019-04-16T03:39:02.439Z,-2.71
2019-04-16T03:40:15.108Z,-2.74
2019-04-16T03:41:02.472Z,-2.74
2019-04-16T03:42:02.459Z,-2.76
2019-04-16T03:43:04.138Z,-2.74
2019-04-16T03:44:04.212Z,-2.64
2019-04-16T03:45:02.457Z,-2.58
2019-04-16T03:46:02.430Z,-2.60
2019-04-16T03:47:02.477Z,-2.67
2019-04-16T03:48:02.448Z,-2.70
2019-04-16T03:49:02.443Z,-2.62
2019-04-16T03:50:02.458Z,-2.63
2019-04-16T03:51:03.509Z,-2.69
2019-04-16T03:52:04.823Z,-2.77
2019-04-16T03:53:02.511Z,-2.82
2019-04-16T03:54:04.900Z,-2.88
2019-04-16T03:55:02.430Z,-2.91
2019-04-16T03:56:02.470Z,-2.89
2019-04-16T03:57:02.867Z,-2.99
2019-04-16T03:58:05.178Z,-3.02
2019-04-16T03:59:02.445Z,-3.01
2019-04-16T04:00:02.691Z,-3.03
2019-04-16T04:01:02.462Z,-3.03
2019-04-16T04:02:02.447Z,-3.06
2019-04-16T04:03:02.445Z,-3.09
2019-04-16T04:04:02.463Z,-2.93
2019-04-16T04:05:06.389Z,-2.89
2019-04-16T04:06:03.508Z,-2.93
2019-04-16T04:07:02.450Z,-2.99
2019-04-16T04:08:02.459Z,-3.03
2019-04-16T04:09:02.456Z,-2.94
2019-04-16T04:10:02.469Z,-2.97
2019-04-16T04:11:02.464Z,-2.98
2019-04-16T04:12:02.460Z,-3.04
2019-04-16T04:13:04.883Z,-3.03
2019-04-16T04:14:02.488Z,-2.98
2019-04-16T04:15:02.449Z,-2.98
2019-04-16T04:16:02.465Z,-2.95
2019-04-16T04:17:05.459Z,-2.90
2019-04-16T04:18:02.506Z,-2.85
2019-04-16T04:19:02.464Z,-2.80
2019-04-16T04:20:02.496Z,-2.78
2019-04-16T04:21:02.474Z,-2.76
2019-04-16T04:22:02.472Z,-2.76
2019-04-16T04:23:02.518Z,-2.76
2019-04-16T04:24:02.773Z,-2.76
2019-04-16T04:25:04.269Z,-2.72
2019-04-16T04:26:02.463Z,-2.68
2019-04-16T04:27:02.462Z,-2.64
2019-04-16T04:28:02.468Z,-2.60
2019-04-16T04:29:05.949Z,-2.59
2019-04-16T04:30:02.472Z,-2.57
2019-04-16T04:31:02.485Z,-2.56
2019-04-16T04:32:03.387Z,-2.52
2019-04-16T04:33:07.449Z,-2.52
2019-04-16T04:34:02.487Z,-2.50
2019-04-16T04:35:02.470Z,-2.50
2019-04-16T04:36:02.470Z,-2.49
2019-04-16T04:37:02.486Z,-2.48
2019-04-16T04:38:04.083Z,-2.47
2019-04-16T04:39:02.466Z,-2.42
2019-04-16T04:40:02.459Z,-2.30
2019-04-16T04:41:02.506Z,-2.29
2019-04-16T04:42:02.478Z,-2.28
2019-04-16T04:43:02.450Z,-2.23
2019-04-16T04:44:04.355Z,-2.20
2019-04-16T04:45:02.461Z,-2.16
2019-04-16T04:46:02.486Z,-2.18
2019-04-16T04:47:02.517Z,-2.14
2019-04-16T04:48:02.495Z,-2.15
2019-04-16T04:49:02.502Z,-2.16
2019-04-16T04:50:03.442Z,-2.18
2019-04-16T04:51:06.892Z,-2.16
2019-04-16T04:52:02.469Z,-2.14
2019-04-16T04:53:02.519Z,-2.16
2019-04-16T04:54:02.497Z,-2.14
2019-04-16T04:55:02.486Z,-2.18
2019-04-16T04:56:02.466Z,-2.16
2019-04-16T04:57:02.479Z,-2.11
2019-04-16T04:58:03.332Z,-2.10
2019-04-16T04:59:05.137Z,-2.11
2019-04-16T05:00:02.481Z,-2.11
2019-04-16T05:01:02.478Z,-2.14
2019-04-16T05:02:02.483Z,-2.12
2019-04-16T05:03:02.467Z,-2.13
2019-04-16T05:04:02.488Z,-2.13
2019-04-16T05:05:02.502Z,-2.12
2019-04-16T05:06:02.465Z,-2.15
2019-04-16T05:07:04.695Z,-2.12
2019-04-16T05:08:02.487Z,-2.13
2019-04-16T05:09:02.487Z,-2.07
2019-04-16T05:10:04.618Z,-2.03
2019-04-16T05:11:02.979Z,-1.97
2019-04-16T05:12:02.478Z,-1.92
2019-04-16T05:13:02.503Z,-1.85
2019-04-16T05:14:02.503Z,-1.79
2019-04-16T05:15:04.011Z,-1.76
2019-04-16T05:16:02.801Z,-1.71
2019-04-16T05:17:03.633Z,-1.67
2019-04-16T05:18:05.564Z,-1.64
2019-04-16T05:19:02.517Z,-1.59
2019-04-16T05:20:02.492Z,-1.55
2019-04-16T05:21:02.491Z,-1.51
2019-04-16T05:22:02.501Z,-1.49
2019-04-16T05:23:02.513Z,-1.45
2019-04-16T05:24:02.506Z,-1.40
2019-04-16T05:25:02.769Z,-1.36
2019-04-16T05:26:04.698Z,-1.30
2019-04-16T05:27:02.503Z,-1.25
2019-04-16T05:28:02.512Z,-1.19
2019-04-16T05:29:02.507Z,-1.15
2019-04-16T05:30:02.505Z,-1.05
2019-04-16T05:31:02.515Z,-0.92
2019-04-16T05:32:02.532Z,-0.82
2019-04-16T05:33:05.430Z,-0.81
2019-04-16T05:34:02.575Z,-0.74
2019-04-16T05:35:02.533Z,-0.72
2019-04-16T05:36:02.526Z,-0.66
2019-04-16T05:37:02.498Z,-0.64
2019-04-16T05:38:02.532Z,-0.64
2019-04-16T05:39:03.767Z,-0.61
2019-04-16T05:40:02.518Z,-0.60
2019-04-16T05:41:13.150Z,-0.56
2019-04-16T05:42:02.526Z,-0.53
2019-04-16T05:43:02.513Z,-0.49
2019-04-16T05:44:02.503Z,-0.49
2019-04-16T05:45:05.313Z,-0.47
2019-04-16T05:46:02.524Z,-0.44
2019-04-16T05:47:02.539Z,-0.43
2019-04-16T05:48:02.524Z,-0.41
2019-04-16T05:49:02.522Z,-0.34
2019-04-16T05:50:02.498Z,-0.28
2019-04-16T05:51:02.511Z,-0.26
2019-04-16T05:52:03.826Z,-0.20
2019-04-16T05:53:02.513Z,-0.07
2019-04-16T05:54:02.522Z,0.07
2019-04-16T05:55:02.527Z,0.12
2019-04-16T05:56:02.541Z,0.21
2019-04-16T05:57:02.501Z,0.26
2019-04-16T05:58:02.519Z,0.29
2019-04-16T05:59:03.256Z,0.36
2019-04-16T06:00:03.373Z,0.35
2019-04-16T06:01:02.564Z,0.43
2019-04-16T06:02:02.540Z,0.55
2019-04-16T06:03:02.525Z,0.66
2019-04-16T06:04:02.519Z,0.71
2019-04-16T06:05:02.530Z,0.78
2019-04-16T06:06:02.559Z,0.80
2019-04-16T06:07:03.697Z,0.86
2019-04-16T06:08:02.533Z,0.90
2019-04-16T06:09:02.510Z,0.95
2019-04-16T06:10:02.513Z,1.02
2019-04-16T06:11:02.546Z,1.04
2019-04-16T06:12:02.533Z,1.10
2019-04-16T06:13:02.528Z,1.18
2019-04-16T06:14:02.548Z,1.27
2019-04-16T06:15:02.515Z,1.32
2019-04-16T06:16:02.520Z,1.33
2019-04-16T06:17:02.535Z,1.37
2019-04-16T06:18:05.337Z,1.45
2019-04-16T06:19:02.520Z,1.44
2019-04-16T06:20:02.533Z,1.43
2019-04-16T06:21:02.539Z,1.47
2019-04-16T06:22:02.558Z,1.50
2019-04-16T06:23:02.594Z,1.72
2019-04-16T06:24:03.521Z,1.97
2019-04-16T06:25:08.436Z,2.21
2019-04-16T06:26:02.584Z,2.40
2019-04-16T06:27:02.510Z,3.03
2019-04-16T06:28:02.546Z,3.38
2019-04-16T06:29:02.564Z,3.68
2019-04-16T06:30:02.540Z,3.93
2019-04-16T06:31:05.291Z,4.51
2019-04-16T06:32:02.559Z,5.05
2019-04-16T06:33:02.528Z,5.17
2019-04-16T06:34:02.537Z,5.14
2019-04-16T06:35:02.581Z,5.32
2019-04-16T06:36:02.567Z,5.29
2019-04-16T06:37:02.531Z,5.48
2019-04-16T06:38:02.538Z,5.47
2019-04-16T06:39:02.522Z,5.51
2019-04-16T06:40:02.549Z,5.58
2019-04-16T06:41:03.329Z,6.17
2019-04-16T06:42:02.547Z,5.83
2019-04-16T06:43:02.860Z,6.27
2019-04-16T06:44:04.206Z,5.48
2019-04-16T06:45:04.952Z,4.73
2019-04-16T06:46:02.555Z,4.80
2019-04-16T06:47:02.574Z,5.75
2019-04-16T06:48:02.542Z,6.19
2019-04-16T06:49:02.537Z,6.64
2019-04-16T06:50:02.555Z,7.51
2019-04-16T06:51:02.551Z,7.71
2019-04-16T06:52:02.558Z,8.32
2019-04-16T06:53:02.596Z,8.60
2019-04-16T06:54:02.557Z,8.86
2019-04-16T06:55:03.575Z,9.37
2019-04-16T06:56:05.645Z,9.95
2019-04-16T06:57:02.541Z,10.43
2019-04-16T06:58:02.569Z,10.82
2019-04-16T06:59:02.587Z,11.03
2019-04-16T07:00:03.128Z,10.91
2019-04-16T07:01:05.888Z,11.24
2019-04-16T07:02:02.563Z,11.79
2019-04-16T07:03:03.029Z,12.11
2019-04-16T07:04:02.556Z,12.08
2019-04-16T07:05:02.575Z,12.21
2019-04-16T07:06:03.907Z,12.40
2019-04-16T07:07:07.842Z,12.60
2019-04-16T07:08:02.596Z,12.65
2019-04-16T07:09:02.540Z,12.38
2019-04-16T07:10:02.551Z,12.51
2019-04-16T07:11:02.576Z,12.32
2019-04-16T07:12:02.565Z,12.55
2019-04-16T07:13:02.548Z,12.94
2019-04-16T07:14:02.562Z,13.50
2019-04-16T07:15:02.546Z,13.93
2019-04-16T07:16:02.577Z,12.87
2019-04-16T07:17:02.605Z,13.39
2019-04-16T07:18:05.308Z,13.66
2019-04-16T07:19:02.566Z,13.87
2019-04-16T07:20:04.618Z,14.05
2019-04-16T07:21:02.555Z,14.06
2019-04-16T07:22:02.582Z,13.79
2019-04-16T07:23:02.569Z,14.38
2019-04-16T07:24:02.622Z,14.33
2019-04-16T07:25:04.490Z,13.82
2019-04-16T07:26:03.861Z,13.64
2019-04-16T07:27:02.564Z,13.61
2019-04-16T07:28:02.581Z,13.23
2019-04-16T07:29:02.609Z,12.86
2019-04-16T07:30:06.762Z,13.48
2019-04-16T07:31:02.859Z,13.95
2019-04-16T07:32:03.050Z,14.15
2019-04-16T07:33:02.587Z,14.33
2019-04-16T07:34:02.584Z,14.63
2019-04-16T07:35:02.587Z,14.01
2019-04-16T07:36:02.595Z,14.03
2019-04-16T07:37:02.591Z,13.84
2019-04-16T07:38:05.773Z,13.34
2019-04-16T07:39:05.363Z,13.81
2019-04-16T07:40:02.600Z,13.97
2019-04-16T07:41:02.620Z,13.94
2019-04-16T07:42:10.554Z,13.97
2019-04-16T07:43:02.580Z,14.08
2019-04-16T07:44:08.148Z,13.49
2019-04-16T07:45:02.589Z,14.01
2019-04-16T07:46:02.621Z,14.39
2019-04-16T07:47:02.593Z,14.84
2019-04-16T07:48:05.903Z,14.85
2019-04-16T07:49:02.589Z,14.61
2019-04-16T07:50:02.620Z,14.22
2019-04-16T07:51:04.850Z,14.12
2019-04-16T07:52:06.959Z,14.43
2019-04-16T07:53:02.639Z,14.41
2019-04-16T07:54:03.169Z,14.56
2019-04-16T07:55:02.614Z,14.58
2019-04-16T07:56:02.584Z,14.56
2019-04-16T07:57:02.594Z,14.46
2019-04-16T07:58:02.773Z,14.32
2019-04-16T07:59:02.695Z,14.18
2019-04-16T08:00:02.608Z,14.78
2019-04-16T08:01:02.603Z,14.93
2019-04-16T08:02:02.625Z,15.34
2019-04-16T08:03:02.699Z,15.60
2019-04-16T08:04:03.261Z,15.92
2019-04-16T08:05:07.754Z,16.14
2019-04-16T08:06:02.613Z,16.43
2019-04-16T08:07:02.598Z,15.81
2019-04-16T08:08:02.857Z,15.86
2019-04-16T08:09:02.587Z,16.02
2019-04-16T08:10:03.321Z,14.03
2019-04-16T08:11:02.644Z,14.73
2019-04-16T08:12:02.696Z,14.58
2019-04-16T08:13:02.612Z,14.26
2019-04-16T08:14:02.790Z,14.84
2019-04-16T08:15:13.371Z,15.54
2019-04-16T08:16:02.618Z,15.94
2019-04-16T08:17:02.641Z,16.05
2019-04-16T08:18:02.801Z,16.13
2019-04-16T08:19:02.620Z,16.01
2019-04-16T08:20:02.665Z,16.24
2019-04-16T08:21:10.120Z,16.88
2019-04-16T08:22:02.617Z,16.77
2019-04-16T08:23:02.638Z,16.63
2019-04-16T08:24:02.626Z,16.67
2019-04-16T08:25:03.917Z,16.64
2019-04-16T08:26:04.336Z,16.56
2019-04-16T08:27:02.611Z,16.58
2019-04-16T08:28:02.621Z,16.22
2019-04-16T08:29:02.646Z,16.24
2019-04-16T08:30:04.134Z,16.36
2019-04-16T08:31:02.617Z,16.54
2019-04-16T08:32:02.634Z,16.40
2019-04-16T08:33:02.628Z,16.55
2019-04-16T08:34:02.632Z,16.74
2019-04-16T08:35:02.678Z,16.99
2019-04-16T08:36:02.625Z,17.08
2019-04-16T08:37:02.633Z,16.80
2019-04-16T08:38:02.623Z,16.80
2019-04-16T08:39:05.911Z,16.39
2019-04-16T08:40:02.633Z,15.37
2019-04-16T08:41:02.916Z,15.33
2019-04-16T08:42:02.650Z,15.51
2019-04-16T08:43:02.667Z,16.09
2019-04-16T08:44:03.815Z,16.14
2019-04-16T08:45:07.604Z,15.78
2019-04-16T08:46:02.652Z,14.70
2019-04-16T08:47:03.036Z,14.46
2019-04-16T08:48:02.672Z,14.28
2019-04-16T08:49:02.645Z,15.28
2019-04-16T08:50:02.668Z,15.99
2019-04-16T08:51:04.747Z,15.27
2019-04-16T08:52:02.829Z,15.85
2019-04-16T08:53:02.699Z,15.50
2019-04-16T08:54:02.654Z,15.11
2019-04-16T08:55:02.658Z,15.45
2019-04-16T08:56:02.640Z,15.87
2019-04-16T08:57:02.763Z,15.56
2019-04-16T08:58:06.055Z,15.06
2019-04-16T08:59:02.701Z,14.90
2019-04-16T09:00:02.652Z,15.10
2019-04-16T09:01:02.743Z,14.46
2019-04-16T09:02:02.668Z,14.21
2019-04-16T09:03:02.642Z,14.60
2019-04-16T09:04:03.087Z,15.72
2019-04-16T09:05:05.979Z,15.69
2019-04-16T09:06:04.298Z,15.32
2019-04-16T09:07:11.123Z,15.14
2019-04-16T09:08:12.144Z,15.36
2019-04-16T09:09:12.720Z,15.41
2019-04-16T09:10:16.168Z,15.10
2019-04-16T09:11:03.346Z,14.97
2019-04-16T09:12:07.999Z,15.09
2019-04-16T09:13:04.609Z,15.04
2019-04-16T09:14:02.677Z,15.06
2019-04-16T09:15:02.667Z,15.40
2019-04-16T09:16:02.656Z,16.34
2019-04-16T09:17:02.680Z,16.67
2019-04-16T09:18:02.676Z,16.95
2019-04-16T09:19:02.684Z,16.64
2019-04-16T09:20:05.148Z,16.79
2019-04-16T09:21:02.662Z,16.60
2019-04-16T09:22:02.666Z,16.65
2019-04-16T09:23:02.692Z,17.32
2019-04-16T09:24:08.567Z,17.15
2019-04-16T09:25:02.682Z,17.03
2019-04-16T09:26:13.616Z,16.96
2019-04-16T09:27:02.658Z,17.13
2019-04-16T09:28:02.690Z,16.77
2019-04-16T09:29:08.515Z,16.71
2019-04-16T09:30:02.683Z,16.71
2019-04-16T09:31:02.719Z,17.24
2019-04-16T09:32:02.696Z,17.82
2019-04-16T09:33:02.673Z,17.62
2019-04-16T09:34:05.754Z,17.25
2019-04-16T09:35:10.084Z,17.01
2019-04-16T09:36:02.676Z,17.28
2019-04-16T09:37:02.701Z,18.20
2019-04-16T09:38:02.697Z,17.71
2019-04-16T09:39:02.663Z,17.08
2019-04-16T09:40:15.592Z,16.46
2019-04-16T09:41:02.746Z,16.02
2019-04-16T09:42:02.773Z,16.28
2019-04-16T09:43:15.803Z,16.85
2019-04-16T09:44:02.738Z,16.97
2019-04-16T09:45:05.060Z,17.55
2019-04-16T09:46:10.381Z,18.06
2019-04-16T09:47:05.210Z,18.20
2019-04-16T09:48:03.773Z,18.99
2019-04-16T09:49:04.733Z,19.38
2019-04-16T09:50:02.687Z,19.08
2019-04-16T09:51:02.687Z,19.67
2019-04-16T09:52:03.950Z,20.00
2019-04-16T09:53:03.090Z,20.20
2019-04-16T09:54:02.695Z,18.86
2019-04-16T09:55:02.711Z,18.12
2019-04-16T09:56:02.741Z,17.87
2019-04-16T09:57:02.721Z,18.41
2019-04-16T09:58:06.066Z,18.56
2019-04-16T09:59:02.772Z,18.87
2019-04-16T10:00:02.689Z,19.33
2019-04-16T10:01:02.692Z,19.20
2019-04-16T10:02:02.746Z,19.26
2019-04-16T10:03:02.695Z,19.94
2019-04-16T10:04:02.719Z,19.75
2019-04-16T10:05:02.716Z,18.61
2019-04-16T10:06:05.279Z,17.04
2019-04-16T10:07:02.737Z,17.68
2019-04-16T10:08:02.761Z,18.37
2019-04-16T10:09:02.702Z,18.54
2019-04-16T10:10:02.728Z,19.41
2019-04-16T10:11:05.770Z,19.28
2019-04-16T10:12:05.036Z,19.28
2019-04-16T10:13:02.737Z,19.59
2019-04-16T10:14:02.741Z,18.98
2019-04-16T10:15:02.756Z,19.28
2019-04-16T10:16:02.756Z,19.75
2019-04-16T10:17:02.775Z,19.09
2019-04-16T10:18:02.715Z,19.64
2019-04-16T10:19:07.897Z,19.79
2019-04-16T10:20:02.758Z,19.06
2019-04-16T10:21:02.732Z,19.00
2019-04-16T10:22:02.734Z,17.41
2019-04-16T10:23:02.781Z,18.17
2019-04-16T10:24:02.731Z,19.18
2019-04-16T10:25:02.749Z,18.67
2019-04-16T10:26:02.773Z,19.26
2019-04-16T10:27:04.361Z,18.84
2019-04-16T10:28:04.960Z,18.94
2019-04-16T10:29:05.817Z,18.64
2019-04-16T10:30:02.727Z,18.52
2019-04-16T10:31:02.739Z,18.85
2019-04-16T10:32:02.788Z,18.84
2019-04-16T10:33:02.718Z,18.94
2019-04-16T10:34:02.786Z,18.86
2019-04-16T10:35:02.755Z,17.86
2019-04-16T10:36:04.807Z,18.28
2019-04-16T10:37:02.750Z,18.72
2019-04-16T10:38:02.772Z,18.33
2019-04-16T10:39:02.766Z,17.05
2019-04-16T10:40:04.893Z,18.27
2019-04-16T10:41:02.804Z,19.25
2019-04-16T10:42:02.725Z,19.26
2019-04-16T10:43:02.769Z,19.17
2019-04-16T10:44:02.747Z,19.27
2019-04-16T10:45:02.770Z,18.54
2019-04-16T10:46:02.818Z,18.24
2019-04-16T10:47:02.770Z,18.09
2019-04-16T10:48:02.756Z,18.01
2019-04-16T10:49:02.715Z,17.69
2019-04-16T10:50:02.787Z,17.84
2019-04-16T10:51:02.732Z,18.21
2019-04-16T10:52:02.787Z,17.87
2019-04-16T10:53:02.813Z,17.32
2019-04-16T10:54:02.737Z,17.92
2019-04-16T10:55:02.795Z,18.23
2019-04-16T10:56:02.798Z,18.08
2019-04-16T10:57:02.783Z,18.19
2019-04-16T10:58:02.775Z,19.21
2019-04-16T10:59:02.820Z,19.78
2019-04-16T11:00:02.749Z,19.19
2019-04-16T11:01:02.775Z,19.83
2019-04-16T11:02:02.869Z,18.51
2019-04-16T11:03:02.760Z,17.51
2019-04-16T11:04:04.833Z,16.98
2019-04-16T11:05:03.236Z,16.75
2019-04-16T11:06:02.767Z,16.37
2019-04-16T11:07:02.798Z,16.82
2019-04-16T11:08:04.345Z,18.57
2019-04-16T11:09:02.770Z,18.90
2019-04-16T11:10:02.803Z,18.63
2019-04-16T11:11:02.876Z,17.99
2019-04-16T11:12:05.405Z,17.80
2019-04-16T11:13:02.785Z,18.41
2019-04-16T11:14:02.811Z,17.37
2019-04-16T11:15:02.780Z,17.78
2019-04-16T11:16:02.791Z,18.13
2019-04-16T11:17:02.827Z,19.50
2019-04-16T11:18:02.788Z,19.48
2019-04-16T11:19:02.963Z,20.15
2019-04-16T11:20:03.179Z,20.92
2019-04-16T11:21:02.960Z,21.47
2019-04-16T11:22:03.914Z,18.59
2019-04-16T11:23:03.289Z,18.36
2019-04-16T11:24:03.087Z,18.02
2019-04-16T11:25:03.087Z,16.61
2019-04-16T11:26:02.775Z,17.83
2019-04-16T11:27:02.782Z,18.98
2019-04-16T11:28:02.814Z,17.09
2019-04-16T11:29:02.880Z,17.79
2019-04-16T11:30:02.899Z,19.01
2019-04-16T11:31:03.062Z,19.40
2019-04-16T11:32:03.031Z,19.09
2019-04-16T11:33:03.116Z,17.30
2019-04-16T11:34:03.001Z,17.93
2019-04-16T11:35:03.040Z,17.29
2019-04-16T11:36:17.415Z,17.27
2019-04-16T11:37:07.412Z,18.35
2019-04-16T11:38:03.010Z,17.88
2019-04-16T11:39:02.835Z,18.03
2019-04-16T11:40:03.188Z,18.36
2019-04-16T11:41:02.810Z,18.89
2019-04-16T11:42:02.793Z,19.25
2019-04-16T11:43:03.154Z,19.42
2019-04-16T11:44:14.264Z,17.90
2019-04-16T11:45:02.810Z,19.34
2019-04-16T11:46:03.055Z,20.69
2019-04-16T11:47:02.872Z,21.57
2019-04-16T11:48:03.013Z,21.96
2019-04-16T11:49:03.278Z,21.23
2019-04-16T11:50:02.838Z,20.54
2019-04-16T11:51:02.815Z,20.43
2019-04-16T11:52:02.927Z,19.97
2019-04-16T11:53:03.102Z,20.15
2019-04-16T11:54:03.091Z,18.55
2019-04-16T11:55:02.895Z,17.80
2019-04-16T11:56:02.902Z,18.30
2019-04-16T11:57:03.000Z,18.77
2019-04-16T11:58:02.837Z,19.41
2019-04-16T11:59:02.857Z,20.47
2019-04-16T12:00:07.714Z,21.23
2019-04-16T12:01:02.848Z,21.36
2019-04-16T12:02:02.927Z,21.32
2019-04-16T12:03:02.843Z,20.30
2019-04-16T12:04:02.872Z,20.02
2019-04-16T12:05:02.851Z,19.31
2019-04-16T12:06:02.830Z,18.55
2019-04-16T12:07:05.624Z,19.11
2019-04-16T12:08:02.871Z,19.09
2019-04-16T12:09:02.874Z,19.46
2019-04-16T12:10:02.857Z,19.16
2019-04-16T12:11:02.870Z,18.68
2019-04-16T12:12:02.845Z,19.37
2019-04-16T12:13:03.965Z,20.34
2019-04-16T12:14:04.224Z,20.85
2019-04-16T12:15:02.831Z,19.71
2019-04-16T12:16:02.868Z,19.00
2019-04-16T12:17:02.855Z,18.04
2019-04-16T12:18:02.833Z,19.11
2019-04-16T12:19:02.878Z,20.30
2019-04-16T12:20:02.946Z,20.73
2019-04-16T12:21:02.879Z,18.47
2019-04-16T12:22:02.885Z,19.56
2019-04-16T12:23:02.890Z,19.03
2019-04-16T12:24:02.890Z,19.90
2019-04-16T12:25:02.839Z,20.82
2019-04-16T12:26:02.853Z,19.29
2019-04-16T12:27:03.102Z,19.77
2019-04-16T12:28:06.525Z,19.93
2019-04-16T12:29:02.895Z,19.56
2019-04-16T12:30:02.881Z,20.20
2019-04-16T12:31:02.844Z,19.59
2019-04-16T12:32:04.338Z,20.20
2019-04-16T12:33:07.721Z,20.47
2019-04-16T12:34:02.896Z,20.56
2019-04-16T12:35:02.881Z,20.43
2019-04-16T12:36:02.928Z,20.65
2019-04-16T12:37:02.891Z,19.86
2019-04-16T12:38:02.872Z,19.53
2019-04-16T12:39:03.014Z,19.48
2019-04-16T12:40:02.932Z,19.01
2019-04-16T12:41:02.873Z,20.37
2019-04-16T12:42:02.879Z,20.42
2019-04-16T12:43:02.873Z,17.95
2019-04-16T12:44:02.924Z,18.36
2019-04-16T12:45:02.855Z,19.69
2019-04-16T12:46:02.885Z,19.67
2019-04-16T12:47:02.920Z,20.47
2019-04-16T12:48:02.903Z,21.49
2019-04-16T12:49:02.880Z,21.92
2019-04-16T12:50:02.926Z,22.33
2019-04-16T12:51:02.858Z,22.61
2019-04-16T12:52:03.152Z,22.90
2019-04-16T12:53:02.945Z,22.46
2019-04-16T12:54:02.904Z,22.10